createdAt,value
2018-09-30T00:02:20.654Z,51.40
2018-09-30T00:04:52.190Z,50.80
2018-09-30T00:07:24.191Z,50.40
2018-09-30T00:09:55.746Z,50.50
2018-09-30T00:12:27.284Z,50.40
2018-09-30T00:14:58.764Z,50.00
2018-09-30T00:17:30.197Z,50.60
2018-09-30T00:20:01.714Z,50.40
2018-09-30T00:22:33.305Z,51.40
2018-09-30T00:25:09.890Z,51.70
2018-09-30T00:27:41.515Z,50.60
2018-09-30T00:30:13.187Z,51.10
2018-09-30T00:32:44.647Z,51.00
2018-09-30T00:35:16.205Z,50.90
2018-09-30T00:37:47.720Z,51.20
2018-09-30T00:40:19.194Z,51.20
2018-09-30T00:42:50.688Z,51.60
2018-09-30T00:45:22.187Z,51.10
2018-09-30T00:47:53.646Z,50.90
2018-09-30T00:50:25.255Z,51.00
2018-09-30T00:52:56.704Z,50.70
2018-09-30T00:55:28.417Z,51.00
2018-09-30T00:57:59.749Z,50.80
2018-09-30T01:05:33.641Z,50.60
2018-09-30T01:08:04.951Z,50.80
2018-09-30T01:10:35.578Z,51.10
2018-09-30T01:13:06.897Z,50.90
2018-09-30T01:15:38.389Z,50.80
2018-09-30T01:18:09.726Z,51.20
2018-09-30T01:20:41.361Z,51.10
2018-09-30T01:23:12.772Z,51.60
2018-09-30T01:25:44.203Z,51.50
2018-09-30T01:28:15.673Z,50.60
2018-09-30T01:30:47.190Z,51.20
2018-09-30T01:33:18.657Z,51.20
2018-09-30T01:35:50.223Z,51.20
2018-09-30T01:38:21.731Z,51.30
2018-09-30T01:45:55.308Z,50.40
2018-09-30T01:48:26.787Z,50.60
2018-09-30T01:50:58.372Z,51.20
2018-09-30T01:53:29.830Z,50.90
2018-09-30T01:56:01.404Z,51.50
2018-09-30T01:58:32.717Z,51.00
2018-09-30T02:01:04.312Z,51.60
2018-09-30T02:03:35.706Z,51.60
2018-09-30T02:06:07.199Z,51.50
2018-09-30T02:08:38.655Z,51.70
2018-09-30T02:11:10.119Z,51.70
2018-09-30T02:13:41.667Z,51.40
2018-09-30T02:16:13.203Z,51.60
2018-09-30T02:18:44.662Z,51.70
2018-09-30T02:21:15.916Z,51.70
2018-09-30T02:23:47.535Z,51.40
2018-09-30T02:26:19.298Z,51.50
2018-09-30T02:28:50.790Z,51.60
2018-09-30T02:36:24.474Z,51.10
2018-09-30T02:38:55.799Z,51.40
2018-09-30T02:41:26.820Z,51.40
2018-09-30T02:43:58.055Z,51.20
2018-09-30T02:46:28.687Z,51.60
2018-09-30T02:49:00.198Z,51.60
2018-09-30T02:51:31.724Z,51.80
2018-09-30T02:54:03.246Z,51.70
2018-09-30T02:56:34.732Z,51.90
2018-09-30T02:59:06.196Z,51.70
2018-09-30T03:01:37.721Z,52.00
2018-09-30T03:09:18.640Z,51.00
2018-09-30T03:11:50.202Z,51.20
2018-09-30T03:14:21.394Z,51.70
2018-09-30T03:16:52.758Z,51.70
2018-09-30T03:19:23.838Z,51.60
2018-09-30T03:21:55.641Z,51.30
2018-09-30T03:24:27.196Z,51.30
2018-09-30T03:26:58.410Z,51.70
2018-09-30T03:29:30.195Z,51.80
2018-09-30T03:32:01.736Z,51.80
2018-09-30T03:34:33.411Z,51.90
2018-09-30T03:37:04.706Z,51.10
2018-09-30T03:39:36.071Z,52.00
2018-09-30T03:42:07.692Z,51.60
2018-09-30T03:44:39.200Z,51.70
2018-09-30T03:47:10.617Z,51.30
2018-09-30T03:49:41.594Z,51.50
2018-09-30T03:52:12.655Z,51.70
2018-09-30T03:54:43.700Z,51.60
2018-09-30T03:57:14.741Z,51.90
2018-09-30T04:04:48.726Z,50.90
2018-09-30T04:12:22.375Z,51.20
2018-09-30T04:14:53.856Z,51.30
2018-09-30T04:17:25.463Z,52.10
2018-09-30T04:19:56.769Z,51.90
2018-09-30T04:22:28.275Z,51.90
2018-09-30T04:24:59.749Z,51.40
2018-09-30T04:27:31.438Z,52.00
2018-09-30T04:30:02.780Z,51.40
2018-09-30T04:32:34.222Z,52.00
2018-09-30T04:35:05.705Z,51.40
2018-09-30T04:37:37.197Z,51.90
2018-09-30T04:40:09.059Z,52.00
2018-09-30T04:42:40.727Z,52.00
2018-09-30T04:45:12.291Z,52.00
2018-09-30T04:47:43.775Z,51.70
2018-09-30T04:50:15.335Z,52.00
2018-09-30T04:52:46.815Z,51.50
2018-09-30T04:55:18.354Z,51.90
2018-09-30T04:57:49.803Z,51.60
2018-09-30T05:00:21.259Z,51.60
2018-09-30T05:02:52.723Z,51.50
2018-09-30T05:05:24.266Z,51.40
2018-09-30T05:07:55.792Z,53.40
2018-09-30T05:10:26.947Z,53.40
2018-09-30T05:12:58.547Z,52.40
2018-09-30T05:15:30.194Z,52.10
2018-09-30T05:18:01.719Z,51.90
2018-09-30T05:20:33.653Z,51.50
2018-09-30T05:23:05.196Z,51.30
2018-09-30T05:25:36.668Z,50.90
2018-09-30T05:28:08.290Z,50.60
2018-09-30T05:30:39.723Z,50.10
2018-09-30T05:33:11.300Z,49.90
2018-09-30T05:35:42.883Z,50.70
2018-09-30T05:38:14.438Z,49.60
2018-09-30T05:40:45.756Z,50.00
2018-09-30T05:43:17.293Z,49.20
2018-09-30T05:45:48.814Z,48.60
2018-09-30T05:48:20.405Z,48.50
2018-09-30T05:50:51.801Z,47.80
2018-09-30T05:53:23.307Z,47.90
2018-09-30T05:55:54.780Z,46.70
2018-09-30T05:58:26.521Z,47.10
2018-09-30T06:00:57.887Z,46.30
2018-09-30T06:03:29.486Z,46.50
2018-09-30T06:06:01.054Z,46.30
2018-09-30T06:08:32.723Z,46.00
2018-09-30T06:11:04.186Z,46.00
2018-09-30T06:13:35.666Z,45.70
2018-09-30T06:16:07.404Z,45.90
2018-09-30T06:18:38.731Z,46.00
2018-09-30T06:26:18.996Z,45.00
2018-09-30T06:28:49.571Z,45.70
2018-09-30T06:31:20.971Z,46.10
2018-09-30T06:33:52.244Z,46.00
2018-09-30T06:36:23.670Z,46.20
2018-09-30T06:38:55.195Z,46.40
2018-09-30T06:41:26.669Z,47.00
2018-09-30T06:43:57.899Z,48.10
2018-09-30T06:46:29.632Z,48.30
2018-09-30T06:49:01.203Z,47.80
2018-09-30T06:51:32.687Z,47.90
2018-09-30T06:54:04.203Z,47.90
2018-09-30T06:56:35.687Z,48.60
2018-09-30T06:59:07.281Z,48.50
2018-09-30T07:01:38.695Z,48.90
2018-09-30T07:04:10.334Z,49.00
2018-09-30T07:06:41.728Z,48.90
2018-09-30T07:09:13.212Z,49.00
2018-09-30T07:11:44.753Z,49.20
2018-09-30T07:14:16.397Z,49.60
2018-09-30T07:16:48.021Z,49.10
2018-09-30T07:19:19.504Z,49.50
2018-09-30T07:21:50.897Z,49.40
2018-09-30T07:24:25.190Z,49.80
2018-09-30T07:26:56.735Z,49.70
2018-09-30T07:34:30.963Z,49.30
2018-09-30T07:37:01.662Z,50.40
2018-09-30T07:39:33.265Z,50.50
2018-09-30T07:42:04.719Z,51.00
2018-09-30T07:44:36.197Z,50.90
2018-09-30T07:47:07.692Z,50.40
2018-09-30T07:49:39.215Z,51.30
2018-09-30T07:52:11.215Z,51.60
2018-09-30T07:54:42.843Z,51.40
2018-09-30T07:59:45.625Z,51.60
2018-09-30T08:02:16.969Z,51.30
2018-09-30T08:04:48.653Z,51.80
2018-09-30T08:07:20.215Z,51.30
2018-09-30T08:09:51.700Z,51.60
2018-09-30T08:12:23.038Z,51.70
2018-09-30T08:14:53.689Z,51.80
2018-09-30T08:17:25.477Z,52.30
2018-09-30T08:19:56.987Z,52.20
2018-09-30T08:22:28.547Z,51.90
2018-09-30T08:24:59.990Z,52.00
2018-09-30T08:27:31.513Z,51.90
2018-09-30T08:30:03.219Z,52.10
2018-09-30T08:32:34.723Z,52.50
2018-09-30T08:35:10.187Z,52.30
2018-09-30T08:37:47.477Z,53.00
2018-09-30T08:40:24.206Z,53.00
2018-09-30T08:42:55.648Z,53.20
2018-09-30T08:45:26.750Z,53.50
2018-09-30T08:47:58.429Z,53.90
2018-09-30T08:50:29.774Z,53.20
2018-09-30T08:53:00.813Z,53.50
2018-09-30T08:55:32.408Z,53.20
2018-09-30T08:58:03.915Z,53.50
2018-09-30T09:00:35.371Z,53.80
2018-09-30T09:03:06.767Z,53.40
2018-09-30T09:08:09.664Z,53.70
2018-09-30T09:10:41.207Z,53.60
2018-09-30T09:13:12.720Z,53.90
2018-09-30T09:15:44.312Z,52.90
2018-09-30T09:18:16.204Z,53.70
2018-09-30T09:20:47.710Z,53.80
2018-09-30T09:23:19.287Z,53.70
2018-09-30T09:25:50.699Z,53.90
2018-09-30T09:28:23.451Z,53.80
2018-09-30T09:30:54.785Z,54.20
2018-09-30T09:35:57.218Z,53.90
2018-09-30T09:38:28.817Z,53.70
2018-09-30T09:41:00.013Z,54.00
2018-09-30T09:43:31.509Z,54.10
2018-09-30T09:46:02.912Z,54.30
2018-09-30T09:48:34.643Z,53.60
2018-09-30T09:51:06.298Z,54.20
2018-09-30T09:53:37.813Z,54.30
2018-09-30T09:56:09.307Z,53.80
2018-09-30T09:58:40.742Z,53.40
2018-09-30T10:01:12.617Z,53.90
2018-09-30T10:03:43.975Z,53.30
2018-09-30T10:06:14.643Z,53.20
2018-09-30T10:08:46.234Z,53.60
2018-09-30T10:11:17.796Z,52.70
2018-09-30T10:13:49.318Z,53.50
2018-09-30T10:16:21.880Z,53.80
2018-09-30T10:18:53.342Z,53.90
2018-09-30T10:21:24.789Z,53.70
2018-09-30T10:23:56.903Z,53.40
2018-09-30T10:26:28.714Z,52.10
2018-09-30T10:29:00.375Z,52.80
2018-09-30T10:31:31.763Z,52.30
2018-09-30T10:34:03.420Z,51.40
2018-09-30T10:36:34.889Z,52.20
2018-09-30T10:39:08.861Z,52.80
2018-09-30T10:41:40.799Z,51.40
2018-09-30T10:44:12.315Z,51.70
2018-09-30T10:46:45.530Z,50.90
2018-09-30T10:49:18.841Z,51.00
2018-09-30T10:51:50.535Z,50.30
2018-09-30T10:54:22.387Z,51.20
2018-09-30T10:56:54.083Z,50.80
2018-09-30T10:59:25.807Z,50.30
2018-09-30T11:01:57.403Z,51.50
2018-09-30T11:04:28.749Z,51.30
2018-09-30T11:12:03.569Z,51.40
2018-09-30T11:14:35.519Z,52.20
2018-09-30T11:17:07.014Z,52.40
2018-09-30T11:19:38.726Z,53.10
2018-09-30T11:22:10.384Z,53.20
2018-09-30T11:24:41.873Z,52.90
2018-09-30T11:27:13.525Z,53.40
2018-09-30T11:29:44.981Z,53.40
2018-09-30T11:32:15.597Z,52.20
2018-09-30T11:34:47.197Z,50.90
2018-09-30T11:37:18.703Z,50.10
2018-09-30T11:39:50.505Z,49.30
2018-09-30T11:42:22.195Z,51.00
2018-09-30T11:44:53.661Z,51.40
2018-09-30T11:47:25.204Z,50.70
2018-09-30T11:49:56.754Z,49.30
2018-09-30T11:52:28.770Z,48.80
2018-09-30T11:55:00.320Z,50.20
2018-09-30T11:57:32.319Z,50.60
2018-09-30T12:00:03.722Z,51.40
2018-09-30T12:02:35.307Z,51.00
2018-09-30T12:05:07.421Z,50.00
2018-09-30T12:07:39.555Z,50.00
2018-09-30T12:10:10.869Z,52.00
2018-09-30T12:12:42.351Z,52.10
2018-09-30T12:15:13.903Z,52.10
2018-09-30T12:17:45.511Z,50.40
2018-09-30T12:20:17.206Z,51.30
2018-09-30T12:22:48.722Z,51.50
2018-09-30T12:27:51.674Z,52.70
2018-09-30T12:30:23.237Z,51.60
2018-09-30T12:32:54.650Z,51.60
2018-09-30T12:35:26.219Z,51.20
2018-09-30T12:37:57.709Z,51.50
2018-09-30T12:40:29.201Z,51.90
2018-09-30T12:43:00.788Z,52.10
2018-09-30T12:45:32.456Z,51.40
2018-09-30T12:48:03.797Z,50.80
2018-09-30T12:50:35.396Z,51.20
2018-09-30T12:53:07.419Z,51.10
2018-09-30T12:55:38.839Z,49.20
2018-09-30T12:58:10.541Z,50.60
2018-09-30T13:00:41.868Z,48.20
2018-09-30T13:03:13.319Z,49.50
2018-09-30T13:05:44.872Z,48.20
2018-09-30T13:13:18.670Z,49.30
2018-09-30T13:15:49.902Z,49.70
2018-09-30T13:20:02.923Z,50.30
2018-09-30T13:22:33.978Z,49.10
2018-09-30T13:25:05.338Z,49.30
2018-09-30T13:27:36.729Z,51.20
2018-09-30T13:30:07.791Z,50.90
2018-09-30T13:32:39.190Z,50.60
2018-09-30T13:35:10.729Z,49.70
2018-09-30T13:37:42.216Z,46.20
2018-09-30T13:40:13.887Z,47.60
2018-09-30T13:42:45.422Z,47.30
2018-09-30T13:45:17.207Z,47.90
2018-09-30T13:47:48.726Z,48.40
2018-09-30T13:50:20.197Z,49.70
2018-09-30T13:52:51.756Z,48.90
2018-09-30T13:55:23.515Z,50.20
2018-09-30T13:57:54.781Z,47.90
2018-09-30T14:00:26.420Z,46.60
2018-09-30T14:02:57.926Z,45.20
2018-09-30T14:05:29.815Z,44.10
2018-09-30T14:08:01.225Z,45.90
2018-09-30T14:10:32.758Z,46.60
2018-09-30T14:13:04.318Z,49.10
2018-09-30T14:15:35.791Z,49.30
2018-09-30T14:18:07.312Z,48.50
2018-09-30T14:20:38.808Z,48.50
2018-09-30T14:23:10.503Z,49.30
2018-09-30T14:25:42.872Z,47.90
2018-09-30T14:28:14.443Z,48.10
2018-09-30T14:30:45.895Z,47.60
2018-09-30T14:33:17.400Z,48.60
2018-09-30T14:35:48.748Z,48.00
2018-09-30T14:40:58.867Z,48.20
2018-09-30T14:43:29.838Z,49.00
2018-09-30T14:46:00.813Z,49.00
2018-09-30T14:48:32.515Z,49.90
2018-09-30T14:51:03.920Z,48.80
2018-09-30T14:53:34.543Z,50.30
2018-09-30T14:56:05.956Z,50.70
2018-09-30T14:58:36.574Z,50.80
2018-09-30T15:01:08.312Z,50.70
2018-09-30T15:03:39.810Z,51.10
2018-09-30T15:06:11.797Z,51.20
2018-09-30T15:08:43.207Z,50.50
2018-09-30T15:11:14.657Z,49.70
2018-09-30T15:13:46.213Z,50.70
2018-09-30T15:16:17.634Z,50.30
2018-09-30T15:18:49.203Z,51.60
2018-09-30T15:21:20.775Z,50.80
2018-09-30T15:23:52.315Z,50.10
2018-09-30T15:26:23.723Z,48.30
2018-09-30T15:28:55.328Z,49.90
2018-09-30T15:31:26.796Z,50.00
2018-09-30T15:33:58.199Z,49.50
2018-09-30T15:36:29.711Z,48.10
2018-09-30T15:39:01.212Z,48.20
2018-09-30T15:41:32.880Z,48.00
2018-09-30T15:44:05.544Z,47.40
2018-09-30T15:46:37.362Z,48.30
2018-09-30T15:49:09.291Z,47.90
2018-09-30T15:51:40.719Z,47.20
2018-09-30T15:54:12.407Z,47.30
2018-09-30T15:56:43.768Z,47.00
2018-09-30T15:59:15.297Z,46.30
2018-09-30T16:01:46.704Z,46.40
2018-09-30T16:04:18.315Z,46.80
2018-09-30T16:06:49.713Z,46.40
2018-09-30T16:09:21.905Z,46.80
2018-09-30T16:11:53.747Z,47.00
2018-09-30T16:14:25.581Z,46.40
2018-09-30T16:16:56.985Z,46.50
2018-09-30T16:19:28.578Z,45.90
2018-09-30T16:21:59.856Z,48.50
2018-09-30T16:24:31.388Z,46.70
2018-09-30T16:27:02.835Z,46.80
2018-09-30T16:29:34.364Z,46.50
2018-09-30T16:32:05.889Z,46.70
2018-09-30T16:34:37.517Z,47.20
2018-09-30T16:37:08.863Z,46.70
2018-09-30T16:39:40.539Z,47.30
2018-09-30T16:42:12.291Z,47.30
2018-09-30T16:44:43.762Z,47.80
2018-09-30T16:47:15.381Z,48.10
2018-09-30T16:49:46.989Z,48.30
2018-09-30T16:52:18.517Z,48.60
2018-09-30T16:54:50.429Z,48.60
2018-09-30T16:57:21.847Z,48.40
2018-09-30T16:59:53.383Z,48.00
2018-09-30T17:02:24.703Z,48.10
2018-09-30T17:04:56.409Z,48.80
2018-09-30T17:07:27.843Z,48.80
2018-09-30T17:15:01.392Z,48.10
2018-09-30T17:17:32.720Z,48.20
2018-09-30T17:20:04.496Z,48.30
2018-09-30T17:22:35.889Z,48.30
2018-09-30T17:25:07.603Z,48.90
2018-09-30T17:27:39.780Z,48.30
2018-09-30T17:30:11.298Z,48.70
2018-09-30T17:32:42.752Z,48.00
2018-09-30T17:35:14.351Z,48.80
2018-09-30T17:37:45.780Z,48.50
2018-09-30T17:40:17.312Z,48.50
2018-09-30T17:42:48.665Z,48.30
2018-09-30T17:45:19.922Z,48.20
2018-09-30T17:47:50.541Z,49.20
2018-09-30T17:50:22.200Z,49.10
2018-09-30T17:52:53.739Z,48.80
2018-09-30T17:55:25.287Z,48.60
2018-09-30T17:57:56.707Z,48.60
2018-09-30T18:00:28.212Z,48.50
2018-09-30T18:02:59.704Z,48.50
2018-09-30T18:05:31.363Z,48.50
2018-09-30T18:08:02.898Z,48.50
2018-09-30T18:10:34.408Z,48.50
2018-09-30T18:13:05.890Z,48.60
2018-09-30T18:15:38.891Z,48.70
2018-09-30T18:18:11.950Z,48.60
2018-09-30T18:20:43.979Z,48.40
2018-09-30T18:23:16.761Z,48.70
2018-09-30T18:25:48.372Z,48.50
2018-09-30T18:28:23.396Z,48.10
2018-09-30T18:30:56.440Z,48.50
2018-09-30T18:33:29.052Z,48.70
2018-09-30T18:36:01.366Z,48.70
2018-09-30T18:38:34.335Z,49.20
2018-09-30T18:41:06.215Z,48.90
2018-09-30T18:43:37.907Z,48.80
2018-09-30T18:46:12.022Z,49.10
2018-09-30T18:48:44.691Z,49.20
2018-09-30T18:51:17.189Z,48.60
2018-09-30T18:53:49.873Z,48.80
2018-09-30T18:56:22.342Z,49.30
2018-09-30T18:58:54.648Z,48.80
2018-09-30T19:01:27.343Z,48.70
2018-09-30T19:03:58.860Z,48.20
2018-09-30T19:06:31.236Z,47.90
2018-09-30T19:09:04.216Z,47.60
2018-09-30T19:11:36.751Z,48.20
2018-09-30T19:14:09.444Z,47.10
2018-09-30T19:16:41.911Z,46.80
2018-09-30T19:19:14.446Z,46.90
2018-09-30T19:21:47.513Z,46.70
2018-09-30T19:24:19.734Z,46.80
2018-09-30T19:26:52.226Z,46.80
2018-09-30T19:29:24.928Z,46.30
2018-09-30T19:31:56.720Z,46.80
2018-09-30T19:34:28.384Z,47.00
2018-09-30T19:37:01.218Z,46.60
2018-09-30T19:39:33.860Z,47.50
2018-09-30T19:42:05.851Z,49.00
2018-09-30T19:44:38.688Z,47.80
2018-09-30T19:49:31.221Z,47.00
2018-09-30T19:52:03.606Z,48.50
2018-09-30T19:54:35.715Z,48.30
2018-09-30T19:57:09.323Z,48.60
2018-09-30T19:59:41.708Z,49.10
2018-09-30T20:02:14.052Z,49.10
2018-09-30T20:04:46.355Z,48.80
2018-09-30T20:07:19.231Z,49.20
2018-09-30T20:09:50.583Z,49.30
2018-09-30T20:12:21.820Z,49.00
2018-09-30T20:14:53.337Z,49.30
2018-09-30T20:17:24.752Z,49.40
2018-09-30T20:19:56.592Z,49.70
2018-09-30T20:22:29.308Z,49.00
2018-09-30T20:25:00.937Z,49.30
2018-09-30T20:27:32.661Z,49.30
2018-09-30T20:30:04.311Z,49.20
2018-09-30T20:32:35.841Z,49.30
2018-09-30T20:35:06.809Z,49.30
2018-09-30T20:37:38.743Z,49.10
2018-09-30T20:40:10.644Z,49.40
2018-09-30T20:42:42.205Z,49.40
2018-09-30T20:45:13.725Z,49.60
2018-09-30T20:47:45.188Z,50.30
2018-09-30T20:50:16.699Z,49.90
2018-09-30T20:52:48.190Z,49.90
2018-09-30T20:55:19.768Z,50.20
2018-09-30T20:57:51.359Z,50.00
2018-09-30T21:00:22.796Z,49.90
2018-09-30T21:02:54.398Z,50.50
2018-09-30T21:05:46.391Z,50.00
2018-09-30T21:08:17.739Z,50.60
2018-09-30T21:10:49.304Z,50.80
2018-09-30T21:13:20.773Z,50.30
2018-09-30T21:20:54.740Z,49.60
2018-09-30T21:23:26.296Z,50.50
2018-09-30T21:25:58.443Z,49.70
2018-09-30T21:28:29.877Z,50.50
2018-09-30T21:31:01.391Z,50.40
2018-09-30T21:33:32.771Z,50.30
2018-09-30T21:36:03.826Z,50.00
2018-09-30T21:38:35.192Z,50.00
2018-09-30T21:41:06.666Z,49.70
2018-09-30T21:43:38.297Z,50.10
2018-09-30T21:46:09.780Z,50.40
2018-09-30T21:48:41.400Z,50.50
2018-09-30T21:51:12.694Z,50.40
2018-09-30T21:53:44.066Z,50.90
2018-09-30T21:56:15.695Z,51.00
2018-09-30T21:58:47.267Z,50.70
2018-09-30T22:01:18.814Z,50.60
2018-09-30T22:03:50.432Z,50.80
2018-09-30T22:06:21.783Z,50.90
2018-09-30T22:08:53.200Z,51.20
2018-09-30T22:11:24.729Z,50.40
2018-09-30T22:13:56.210Z,50.80
2018-09-30T22:16:27.654Z,50.10
2018-09-30T22:18:59.197Z,50.40
2018-09-30T22:21:30.681Z,50.60
2018-09-30T22:24:02.348Z,50.70
2018-09-30T22:26:33.856Z,50.40
2018-09-30T22:29:05.278Z,50.80
2018-09-30T22:31:36.729Z,50.30
2018-09-30T22:34:08.365Z,50.80
2018-09-30T22:36:39.857Z,50.50
2018-09-30T22:39:11.364Z,50.80
2018-09-30T22:41:42.772Z,50.30
2018-09-30T22:44:14.249Z,50.40
2018-09-30T22:46:45.729Z,50.60
2018-09-30T22:49:17.396Z,50.70
2018-09-30T22:51:48.809Z,50.60
2018-09-30T22:54:20.199Z,50.80
2018-09-30T22:56:51.699Z,50.30
2018-09-30T22:59:23.207Z,51.20
2018-09-30T23:01:54.716Z,50.70
2018-09-30T23:04:26.202Z,51.10
2018-09-30T23:06:57.697Z,51.40
2018-09-30T23:09:29.314Z,50.70
2018-09-30T23:12:00.786Z,50.50
2018-09-30T23:14:32.219Z,50.80
2018-09-30T23:17:03.769Z,50.70
2018-09-30T23:19:35.309Z,50.80
2018-09-30T23:22:06.773Z,50.50
2018-09-30T23:24:38.308Z,50.80
2018-09-30T23:27:09.744Z,50.50
2018-09-30T23:29:41.311Z,50.80
2018-09-30T23:32:12.867Z,50.80
2018-09-30T23:34:44.346Z,51.20
2018-09-30T23:37:15.796Z,50.80
2018-09-30T23:39:47.342Z,51.10
2018-09-30T23:42:18.776Z,51.00
2018-09-30T23:44:50.228Z,51.10
2018-09-30T23:47:21.656Z,50.80
2018-09-30T23:49:53.205Z,51.20
2018-09-30T23:52:24.627Z,51.10
2018-09-30T23:54:55.980Z,51.30
2018-09-30T23:57:26.563Z,51.20
2018-09-30T23:59:57.987Z,50.90
